Altamira, Brazil
Current Conditions -  °F | °C
As of 1:00 PM on Friday 28 Nov 2014 (Local Time) from SBHT Reporting Station
Scattered Clouds Scattered Clouds  
Wind Chill: 90°   Ceiling: Unl
Heat Index: 98°   Visibility: 6mi
Dew Point: 73°   Wind: 5mph
Humidity: 59%   Direction: 160°SSE
Pressure: 29.85"   Gusts: NA
Location:  3.2°S, 52.21°W
Report Text: SBHT 281600Z 16004KT 9999 SCT023 32/23 Q1011
Loading
Personal Weather Stations






























Interactive Weather Map New forecast layout! Learn more

10-Day Weather Forecast

Advertisements
Track Severe Weather on mobile